sensor_id;sensor_type;location;lat;lon;timestamp;temperature;humidity
65559;DHT22;52203;51.998;5.140;2023-08-31T00:01:43;7.16;118.99
65559;DHT22;52203;51.998;5.140;2023-08-31T00:04:09;7.17;118.99
65559;DHT22;52203;51.998;5.140;2023-08-31T00:06:40;7.15;118.99
65559;DHT22;52203;51.998;5.140;2023-08-31T00:09:06;7.13;118.99
65559;DHT22;52203;51.998;5.140;2023-08-31T00:11:35;7.16;118.99
65559;DHT22;52203;51.998;5.140;2023-08-31T00:14:01;7.12;118.99
65559;DHT22;52203;51.998;5.140;2023-08-31T00:16:27;7.15;118.99
65559;DHT22;52203;51.998;5.140;2023-08-31T00:18:53;7.10;118.99
65559;DHT22;52203;51.998;5.140;2023-08-31T00:21:20;7.09;118.99
65559;DHT22;52203;51.998;5.140;2023-08-31T00:23:46;7.11;118.99
65559;DHT22;52203;51.998;5.140;2023-08-31T00:26:11;7.11;118.99
65559;DHT22;52203;51.998;5.140;2023-08-31T00:28:37;7.11;118.99
65559;DHT22;52203;51.998;5.140;2023-08-31T00:31:04;7.12;118.99
65559;DHT22;52203;51.998;5.140;2023-08-31T00:33:29;7.16;118.99
65559;DHT22;52203;51.998;5.140;2023-08-31T00:35:58;7.23;118.99
65559;DHT22;52203;51.998;5.140;2023-08-31T00:38:27;7.31;118.99
65559;DHT22;52203;51.998;5.140;2023-08-31T00:40:52;7.40;118.99
65559;DHT22;52203;51.998;5.140;2023-08-31T00:43:19;7.43;118.99
65559;DHT22;52203;51.998;5.140;2023-08-31T00:45:46;7.50;118.99
65559;DHT22;52203;51.998;5.140;2023-08-31T00:48:17;7.57;118.99
65559;DHT22;52203;51.998;5.140;2023-08-31T00:50:44;7.63;118.99
65559;DHT22;52203;51.998;5.140;2023-08-31T00:53:11;7.64;118.99
65559;DHT22;52203;51.998;5.140;2023-08-31T00:55:36;7.69;118.99
65559;DHT22;52203;51.998;5.140;2023-08-31T00:58:04;7.74;118.99
65559;DHT22;52203;51.998;5.140;2023-08-31T01:00:47;7.78;118.99
65559;DHT22;52203;51.998;5.140;2023-08-31T01:06:18;7.90;118.99
65559;DHT22;52203;51.998;5.140;2023-08-31T01:09:10;8.01;118.99
65559;DHT22;52203;51.998;5.140;2023-08-31T01:11:49;8.01;118.99
65559;DHT22;52203;51.998;5.140;2023-08-31T01:14:18;8.05;118.99
65559;DHT22;52203;51.998;5.140;2023-08-31T01:16:48;8.08;118.99
65559;DHT22;52203;51.998;5.140;2023-08-31T01:19:45;8.09;118.99
65559;DHT22;52203;51.998;5.140;2023-08-31T01:22:43;8.12;118.99
65559;DHT22;52203;51.998;5.140;2023-08-31T01:25:12;8.11;118.99
65559;DHT22;52203;51.998;5.140;2023-08-31T01:27:38;8.09;118.99
65559;DHT22;52203;51.998;5.140;2023-08-31T01:30:05;8.08;118.99
65559;DHT22;52203;51.998;5.140;2023-08-31T01:32:31;8.05;118.99
65559;DHT22;52203;51.998;5.140;2023-08-31T01:34:57;8.03;118.99
65559;DHT22;52203;51.998;5.140;2023-08-31T01:37:45;7.99;118.99
65559;DHT22;52203;51.998;5.140;2023-08-31T01:42:37;7.90;118.99
65559;DHT22;52203;51.998;5.140;2023-08-31T01:45:04;7.85;118.99
65559;DHT22;52203;51.998;5.140;2023-08-31T01:47:30;7.81;118.99
65559;DHT22;52203;51.998;5.140;2023-08-31T01:49:56;7.75;118.99
65559;DHT22;52203;51.998;5.140;2023-08-31T01:52:22;7.74;118.99
65559;DHT22;52203;51.998;5.140;2023-08-31T01:54:47;7.70;118.99
65559;DHT22;52203;51.998;5.140;2023-08-31T01:57:13;7.68;118.99
65559;DHT22;52203;51.998;5.140;2023-08-31T01:59:39;7.65;118.99
65559;DHT22;52203;51.998;5.140;2023-08-31T02:02:04;7.65;118.99
65559;DHT22;52203;51.998;5.140;2023-08-31T02:04:30;7.65;118.99
65559;DHT22;52203;51.998;5.140;2023-08-31T02:06:56;7.65;118.99
65559;DHT22;52203;51.998;5.140;2023-08-31T02:09:22;7.65;118.99
65559;DHT22;52203;51.998;5.140;2023-08-31T02:11:47;7.69;118.99
65559;DHT22;52203;51.998;5.140;2023-08-31T02:14:13;7.70;118.99
65559;DHT22;52203;51.998;5.140;2023-08-31T02:16:38;7.74;118.99
65559;DHT22;52203;51.998;5.140;2023-08-31T02:19:04;7.76;118.99
65559;DHT22;52203;51.998;5.140;2023-08-31T02:21:29;7.79;118.99
65559;DHT22;52203;51.998;5.140;2023-08-31T02:23:55;7.86;118.99
65559;DHT22;52203;51.998;5.140;2023-08-31T02:26:21;7.87;118.99
65559;DHT22;52203;51.998;5.140;2023-08-31T02:28:47;7.90;118.99
65559;DHT22;52203;51.998;5.140;2023-08-31T02:31:13;7.92;118.99
65559;DHT22;52203;51.998;5.140;2023-08-31T02:33:39;7.97;118.99
65559;DHT22;52203;51.998;5.140;2023-08-31T02:36:05;7.99;118.99
65559;DHT22;52203;51.998;5.140;2023-08-31T02:38:31;8.00;118.99
65559;DHT22;52203;51.998;5.140;2023-08-31T02:40:57;7.99;118.99
65559;DHT22;52203;51.998;5.140;2023-08-31T02:43:23;7.98;118.99
65559;DHT22;52203;51.998;5.140;2023-08-31T02:45:49;7.97;118.99
65559;DHT22;52203;51.998;5.140;2023-08-31T02:48:14;7.93;118.99
65559;DHT22;52203;51.998;5.140;2023-08-31T02:50:40;7.90;118.99
65559;DHT22;52203;51.998;5.140;2023-08-31T02:53:05;7.85;118.99
65559;DHT22;52203;51.998;5.140;2023-08-31T02:55:34;7.79;118.99
65559;DHT22;52203;51.998;5.140;2023-08-31T02:58:00;7.76;118.99
65559;DHT22;52203;51.998;5.140;2023-08-31T03:00:25;7.71;118.99
65559;DHT22;52203;51.998;5.140;2023-08-31T03:02:51;7.68;118.99
65559;DHT22;52203;51.998;5.140;2023-08-31T03:05:18;7.63;118.99
65559;DHT22;52203;51.998;5.140;2023-08-31T03:07:43;7.60;118.99
65559;DHT22;52203;51.998;5.140;2023-08-31T03:10:09;7.54;118.99
65559;DHT22;52203;51.998;5.140;2023-08-31T03:12:35;7.49;118.99
65559;DHT22;52203;51.998;5.140;2023-08-31T03:15:01;7.46;118.99
65559;DHT22;52203;51.998;5.140;2023-08-31T03:17:27;7.44;118.99
65559;DHT22;52203;51.998;5.140;2023-08-31T03:19:52;7.43;118.99
65559;DHT22;52203;51.998;5.140;2023-08-31T03:22:18;7.43;118.99
65559;DHT22;52203;51.998;5.140;2023-08-31T03:24:43;7.43;118.99
65559;DHT22;52203;51.998;5.140;2023-08-31T03:27:09;7.53;118.99
65559;DHT22;52203;51.998;5.140;2023-08-31T03:29:35;7.59;118.99
65559;DHT22;52203;51.998;5.140;2023-08-31T03:32:00;7.65;118.99
65559;DHT22;52203;51.998;5.140;2023-08-31T03:34:30;7.65;118.99
65559;DHT22;52203;51.998;5.140;2023-08-31T03:36:56;7.68;118.99
65559;DHT22;52203;51.998;5.140;2023-08-31T03:39:23;7.75;118.99
65559;DHT22;52203;51.998;5.140;2023-08-31T03:41:49;7.76;118.99
65559;DHT22;52203;51.998;5.140;2023-08-31T03:44:15;7.77;118.99
65559;DHT22;52203;51.998;5.140;2023-08-31T03:46:40;7.77;118.99
65559;DHT22;52203;51.998;5.140;2023-08-31T03:49:06;7.79;118.99
65559;DHT22;52203;51.998;5.140;2023-08-31T03:51:31;7.82;118.99
65559;DHT22;52203;51.998;5.140;2023-08-31T03:53:57;7.83;118.99
65559;DHT22;52203;51.998;5.140;2023-08-31T03:56:23;7.88;118.99
65559;DHT22;52203;51.998;5.140;2023-08-31T03:58:49;7.85;118.99
65559;DHT22;52203;51.998;5.140;2023-08-31T04:01:14;7.85;118.99
65559;DHT22;52203;51.998;5.140;2023-08-31T04:03:42;7.85;118.99
65559;DHT22;52203;51.998;5.140;2023-08-31T04:06:07;7.86;118.99
65559;DHT22;52203;51.998;5.140;2023-08-31T04:08:33;7.82;118.99
65559;DHT22;52203;51.998;5.140;2023-08-31T04:10:58;7.82;118.99
65559;DHT22;52203;51.998;5.140;2023-08-31T04:13:24;7.79;118.99
65559;DHT22;52203;51.998;5.140;2023-08-31T04:15:49;7.76;118.99
65559;DHT22;52203;51.998;5.140;2023-08-31T04:18:15;7.76;118.99
65559;DHT22;52203;51.998;5.140;2023-08-31T04:20:48;7.73;118.99
65559;DHT22;52203;51.998;5.140;2023-08-31T04:23:14;7.73;118.99
65559;DHT22;52203;51.998;5.140;2023-08-31T04:25:39;7.71;118.99
65559;DHT22;52203;51.998;5.140;2023-08-31T04:28:05;7.70;118.99
65559;DHT22;52203;51.998;5.140;2023-08-31T04:30:30;7.70;118.99
65559;DHT22;52203;51.998;5.140;2023-08-31T04:32:56;7.70;118.99
65559;DHT22;52203;51.998;5.140;2023-08-31T04:35:22;7.71;118.99
65559;DHT22;52203;51.998;5.140;2023-08-31T04:37:47;7.71;118.99
65559;DHT22;52203;51.998;5.140;2023-08-31T04:40:13;7.70;118.99
65559;DHT22;52203;51.998;5.140;2023-08-31T04:42:38;7.72;118.99
65559;DHT22;52203;51.998;5.140;2023-08-31T04:45:04;7.74;118.99
65559;DHT22;52203;51.998;5.140;2023-08-31T04:47:30;7.72;118.99
65559;DHT22;52203;51.998;5.140;2023-08-31T04:49:56;7.71;118.99
65559;DHT22;52203;51.998;5.140;2023-08-31T04:52:22;7.71;118.99
65559;DHT22;52203;51.998;5.140;2023-08-31T04:54:48;7.70;118.99
65559;DHT22;52203;51.998;5.140;2023-08-31T04:57:13;7.71;118.99
65559;DHT22;52203;51.998;5.140;2023-08-31T04:59:39;7.74;118.99
65559;DHT22;52203;51.998;5.140;2023-08-31T05:02:04;7.75;118.99
65559;DHT22;52203;51.998;5.140;2023-08-31T05:04:30;7.78;118.99
65559;DHT22;52203;51.998;5.140;2023-08-31T05:06:56;7.84;118.99
65559;DHT22;52203;51.998;5.140;2023-08-31T05:09:23;7.84;118.99
65559;DHT22;52203;51.998;5.140;2023-08-31T05:11:49;7.84;118.99
65559;DHT22;52203;51.998;5.140;2023-08-31T05:14:14;7.86;118.99
65559;DHT22;52203;51.998;5.140;2023-08-31T05:16:40;7.87;118.99
65559;DHT22;52203;51.998;5.140;2023-08-31T05:19:05;7.89;118.99
65559;DHT22;52203;51.998;5.140;2023-08-31T05:21:31;7.90;118.99
65559;DHT22;52203;51.998;5.140;2023-08-31T05:23:57;7.91;118.99
65559;DHT22;52203;51.998;5.140;2023-08-31T05:26:22;7.91;118.99
65559;DHT22;52203;51.998;5.140;2023-08-31T05:28:48;7.92;118.99
65559;DHT22;52203;51.998;5.140;2023-08-31T05:31:14;7.92;118.99
65559;DHT22;52203;51.998;5.140;2023-08-31T05:33:40;7.92;118.99
65559;DHT22;52203;51.998;5.140;2023-08-31T05:36:06;7.90;118.99
65559;DHT22;52203;51.998;5.140;2023-08-31T05:38:31;7.89;118.99
65559;DHT22;52203;51.998;5.140;2023-08-31T05:41:07;7.92;118.99
65559;DHT22;52203;51.998;5.140;2023-08-31T05:43:36;7.94;118.99
65559;DHT22;52203;51.998;5.140;2023-08-31T05:46:05;8.01;118.99
65559;DHT22;52203;51.998;5.140;2023-08-31T05:48:31;8.09;118.99
65559;DHT22;52203;51.998;5.140;2023-08-31T05:50:57;8.16;118.99
65559;DHT22;52203;51.998;5.140;2023-08-31T05:53:22;8.20;118.99
65559;DHT22;52203;51.998;5.140;2023-08-31T05:55:48;8.21;118.99
65559;DHT22;52203;51.998;5.140;2023-08-31T05:58:14;8.22;118.99
65559;DHT22;52203;51.998;5.140;2023-08-31T06:00:39;8.22;118.99
65559;DHT22;52203;51.998;5.140;2023-08-31T06:03:05;8.23;118.99
65559;DHT22;52203;51.998;5.140;2023-08-31T06:05:32;8.24;118.99
65559;DHT22;52203;51.998;5.140;2023-08-31T06:07:58;8.24;118.99
65559;DHT22;52203;51.998;5.140;2023-08-31T06:10:24;8.27;118.99
65559;DHT22;52203;51.998;5.140;2023-08-31T06:12:50;8.30;118.99
65559;DHT22;52203;51.998;5.140;2023-08-31T06:15:17;8.37;118.99
65559;DHT22;52203;51.998;5.140;2023-08-31T06:17:43;8.44;118.99
65559;DHT22;52203;51.998;5.140;2023-08-31T06:20:09;8.46;118.99
65559;DHT22;52203;51.998;5.140;2023-08-31T06:22:35;8.48;118.99
65559;DHT22;52203;51.998;5.140;2023-08-31T06:25:01;8.49;118.99
65559;DHT22;52203;51.998;5.140;2023-08-31T06:27:29;8.52;118.99
65559;DHT22;52203;51.998;5.140;2023-08-31T06:29:54;8.55;118.99
65559;DHT22;52203;51.998;5.140;2023-08-31T06:32:21;8.56;118.99
65559;DHT22;52203;51.998;5.140;2023-08-31T06:34:47;8.57;118.99
65559;DHT22;52203;51.998;5.140;2023-08-31T06:37:13;8.56;118.99
65559;DHT22;52203;51.998;5.140;2023-08-31T06:39:38;8.56;118.99
65559;DHT22;52203;51.998;5.140;2023-08-31T06:42:04;8.57;118.99
65559;DHT22;52203;51.998;5.140;2023-08-31T06:44:30;8.68;118.99
65559;DHT22;52203;51.998;5.140;2023-08-31T06:46:56;8.81;118.99
65559;DHT22;52203;51.998;5.140;2023-08-31T06:49:22;9.05;118.99
65559;DHT22;52203;51.998;5.140;2023-08-31T06:51:48;9.52;118.99
65559;DHT22;52203;51.998;5.140;2023-08-31T06:54:14;11.43;118.99
65559;DHT22;52203;51.998;5.140;2023-08-31T06:56:40;11.27;118.99
65559;DHT22;52203;51.998;5.140;2023-08-31T06:59:06;11.14;118.99
65559;DHT22;52203;51.998;5.140;2023-08-31T07:01:32;10.98;118.99
65559;DHT22;52203;51.998;5.140;2023-08-31T07:03:59;10.81;118.99
65559;DHT22;52203;51.998;5.140;2023-08-31T07:06:25;10.66;118.99
65559;DHT22;52203;51.998;5.140;2023-08-31T07:08:50;10.64;118.99
65559;DHT22;52203;51.998;5.140;2023-08-31T07:11:17;10.57;118.99
65559;DHT22;52203;51.998;5.140;2023-08-31T07:13:43;10.56;118.99
65559;DHT22;52203;51.998;5.140;2023-08-31T07:16:09;10.56;118.99
65559;DHT22;52203;51.998;5.140;2023-08-31T07:18:37;10.57;118.99
65559;DHT22;52203;51.998;5.140;2023-08-31T07:21:05;10.54;118.99
65559;DHT22;52203;51.998;5.140;2023-08-31T07:23:31;10.53;118.99
65559;DHT22;52203;51.998;5.140;2023-08-31T07:25:58;10.53;118.99
65559;DHT22;52203;51.998;5.140;2023-08-31T07:28:26;10.53;118.99
65559;DHT22;52203;51.998;5.140;2023-08-31T07:31:05;10.53;118.99
65559;DHT22;52203;51.998;5.140;2023-08-31T07:33:32;10.60;118.99
65559;DHT22;52203;51.998;5.140;2023-08-31T07:36:00;10.63;118.99
65559;DHT22;52203;51.998;5.140;2023-08-31T07:38:27;10.70;118.99
65559;DHT22;52203;51.998;5.140;2023-08-31T07:40:53;10.85;118.99
65559;DHT22;52203;51.998;5.140;2023-08-31T07:43:19;11.10;118.99
65559;DHT22;52203;51.998;5.140;2023-08-31T07:45:45;11.09;118.99
65559;DHT22;52203;51.998;5.140;2023-08-31T07:48:10;11.04;118.99
65559;DHT22;52203;51.998;5.140;2023-08-31T07:50:36;11.14;118.99
65559;DHT22;52203;51.998;5.140;2023-08-31T07:53:03;12.10;118.99
65559;DHT22;52203;51.998;5.140;2023-08-31T07:55:34;13.31;118.99
65559;DHT22;52203;51.998;5.140;2023-08-31T07:58:01;14.29;118.99
65559;DHT22;52203;51.998;5.140;2023-08-31T08:00:27;13.65;118.99
65559;DHT22;52203;51.998;5.140;2023-08-31T08:02:53;14.80;118.99
65559;DHT22;52203;51.998;5.140;2023-08-31T08:05:18;15.74;118.99
65559;DHT22;52203;51.998;5.140;2023-08-31T08:07:44;18.19;118.99
65559;DHT22;52203;51.998;5.140;2023-08-31T08:10:11;17.29;118.99
65559;DHT22;52203;51.998;5.140;2023-08-31T08:12:41;17.80;118.99
65559;DHT22;52203;51.998;5.140;2023-08-31T08:15:11;18.08;118.99
65559;DHT22;52203;51.998;5.140;2023-08-31T08:17:36;19.35;118.99
65559;DHT22;52203;51.998;5.140;2023-08-31T08:20:03;19.69;118.99
65559;DHT22;52203;51.998;5.140;2023-08-31T08:22:29;19.13;118.99
65559;DHT22;52203;51.998;5.140;2023-08-31T08:24:56;18.83;118.99
65559;DHT22;52203;51.998;5.140;2023-08-31T08:27:22;19.03;118.99
65559;DHT22;52203;51.998;5.140;2023-08-31T08:29:48;18.79;118.99
65559;DHT22;52203;51.998;5.140;2023-08-31T08:32:14;18.12;118.99
65559;DHT22;52203;51.998;5.140;2023-08-31T08:34:40;19.60;118.99
65559;DHT22;52203;51.998;5.140;2023-08-31T08:37:06;19.07;118.99
65559;DHT22;52203;51.998;5.140;2023-08-31T08:39:32;18.72;118.99
65559;DHT22;52203;51.998;5.140;2023-08-31T08:41:58;18.38;118.99
65559;DHT22;52203;51.998;5.140;2023-08-31T08:44:25;18.32;118.99
65559;DHT22;52203;51.998;5.140;2023-08-31T08:46:53;18.29;118.99
65559;DHT22;52203;51.998;5.140;2023-08-31T08:52:40;18.55;118.99
65559;DHT22;52203;51.998;5.140;2023-08-31T08:55:08;18.55;118.99
65559;DHT22;52203;51.998;5.140;2023-08-31T08:57:34;18.53;118.99
65559;DHT22;52203;51.998;5.140;2023-08-31T09:00:00;18.43;118.99
65559;DHT22;52203;51.998;5.140;2023-08-31T09:02:26;17.92;118.99
65559;DHT22;52203;51.998;5.140;2023-08-31T09:04:52;17.44;118.99
65559;DHT22;52203;51.998;5.140;2023-08-31T09:07:23;18.22;118.99
65559;DHT22;52203;51.998;5.140;2023-08-31T09:09:50;17.48;118.99
65559;DHT22;52203;51.998;5.140;2023-08-31T09:12:16;14.49;118.99
65559;DHT22;52203;51.998;5.140;2023-08-31T09:14:42;14.25;118.99
65559;DHT22;52203;51.998;5.140;2023-08-31T09:17:07;14.19;118.99
65559;DHT22;52203;51.998;5.140;2023-08-31T09:19:33;14.09;118.99
65559;DHT22;52203;51.998;5.140;2023-08-31T09:21:59;14.33;118.99
65559;DHT22;52203;51.998;5.140;2023-08-31T09:24:25;14.22;118.99
65559;DHT22;52203;51.998;5.140;2023-08-31T09:26:57;14.37;118.99
65559;DHT22;52203;51.998;5.140;2023-08-31T09:29:23;14.92;118.99
65559;DHT22;52203;51.998;5.140;2023-08-31T09:31:49;14.94;118.99
65559;DHT22;52203;51.998;5.140;2023-08-31T09:34:15;15.25;118.99
65559;DHT22;52203;51.998;5.140;2023-08-31T09:36:42;15.54;118.99
65559;DHT22;52203;51.998;5.140;2023-08-31T09:39:08;15.67;118.99
65559;DHT22;52203;51.998;5.140;2023-08-31T09:41:54;15.78;118.99
65559;DHT22;52203;51.998;5.140;2023-08-31T09:44:21;16.04;118.99
65559;DHT22;52203;51.998;5.140;2023-08-31T09:46:47;16.30;118.99
65559;DHT22;52203;51.998;5.140;2023-08-31T09:49:16;16.46;118.99
65559;DHT22;52203;51.998;5.140;2023-08-31T09:51:45;16.51;118.99
65559;DHT22;52203;51.998;5.140;2023-08-31T09:54:15;16.62;118.99
65559;DHT22;52203;51.998;5.140;2023-08-31T09:56:43;16.74;118.99
65559;DHT22;52203;51.998;5.140;2023-08-31T09:59:14;16.82;118.99
65559;DHT22;52203;51.998;5.140;2023-08-31T10:01:40;16.90;118.99
65559;DHT22;52203;51.998;5.140;2023-08-31T10:04:06;16.92;118.99
65559;DHT22;52203;51.998;5.140;2023-08-31T10:06:35;17.45;118.99
65559;DHT22;52203;51.998;5.140;2023-08-31T10:09:04;19.26;118.99
65559;DHT22;52203;51.998;5.140;2023-08-31T10:11:30;17.72;118.99
65559;DHT22;52203;51.998;5.140;2023-08-31T10:13:57;17.67;118.99
65559;DHT22;52203;51.998;5.140;2023-08-31T10:16:25;17.81;118.99
65559;DHT22;52203;51.998;5.140;2023-08-31T10:18:50;17.76;118.99
65559;DHT22;52203;51.998;5.140;2023-08-31T10:21:17;17.85;118.99
65559;DHT22;52203;51.998;5.140;2023-08-31T10:23:48;18.80;118.99
65559;DHT22;52203;51.998;5.140;2023-08-31T10:26:43;18.27;118.99
65559;DHT22;52203;51.998;5.140;2023-08-31T10:29:25;18.17;118.99
65559;DHT22;52203;51.998;5.140;2023-08-31T10:31:52;18.19;118.99
65559;DHT22;52203;51.998;5.140;2023-08-31T10:34:34;18.06;118.99
65559;DHT22;52203;51.998;5.140;2023-08-31T10:37:00;18.43;118.99
65559;DHT22;52203;51.998;5.140;2023-08-31T10:39:37;18.47;118.99
65559;DHT22;52203;51.998;5.140;2023-08-31T10:42:03;18.50;118.99
65559;DHT22;52203;51.998;5.140;2023-08-31T10:44:31;17.70;118.99
65559;DHT22;52203;51.998;5.140;2023-08-31T10:47:00;17.68;118.99
65559;DHT22;52203;51.998;5.140;2023-08-31T10:49:28;17.88;118.99
65559;DHT22;52203;51.998;5.140;2023-08-31T10:51:57;17.82;118.99
65559;DHT22;52203;51.998;5.140;2023-08-31T10:54:24;17.85;118.99
65559;DHT22;52203;51.998;5.140;2023-08-31T10:59:52;17.90;118.99
65559;DHT22;52203;51.998;5.140;2023-08-31T11:02:43;17.52;118.99
65559;DHT22;52203;51.998;5.140;2023-08-31T11:05:19;17.18;118.99
65559;DHT22;52203;51.998;5.140;2023-08-31T11:07:49;17.08;118.99
65559;DHT22;52203;51.998;5.140;2023-08-31T11:10:25;16.77;118.99
65559;DHT22;52203;51.998;5.140;2023-08-31T11:12:55;18.53;118.99
65559;DHT22;52203;51.998;5.140;2023-08-31T11:15:23;18.65;118.99
65559;DHT22;52203;51.998;5.140;2023-08-31T11:17:51;18.51;118.99
65559;DHT22;52203;51.998;5.140;2023-08-31T11:20:19;18.28;118.99
65559;DHT22;52203;51.998;5.140;2023-08-31T11:22:46;18.11;118.99
65559;DHT22;52203;51.998;5.140;2023-08-31T11:25:16;18.14;118.99
65559;DHT22;52203;51.998;5.140;2023-08-31T11:27:41;18.25;118.99
65559;DHT22;52203;51.998;5.140;2023-08-31T11:30:16;18.33;118.99
65559;DHT22;52203;51.998;5.140;2023-08-31T11:32:51;17.69;118.99
65559;DHT22;52203;51.998;5.140;2023-08-31T11:35:19;17.65;118.99
65559;DHT22;52203;51.998;5.140;2023-08-31T11:37:49;17.82;118.99
65559;DHT22;52203;51.998;5.140;2023-08-31T11:40:15;17.72;118.99
65559;DHT22;52203;51.998;5.140;2023-08-31T11:42:41;17.40;118.99
65559;DHT22;52203;51.998;5.140;2023-08-31T11:45:07;17.18;118.99
65559;DHT22;52203;51.998;5.140;2023-08-31T11:47:33;17.39;118.99
65559;DHT22;52203;51.998;5.140;2023-08-31T11:50:00;17.26;118.99
65559;DHT22;52203;51.998;5.140;2023-08-31T11:52:30;17.38;118.99
65559;DHT22;52203;51.998;5.140;2023-08-31T11:54:56;17.36;118.99
65559;DHT22;52203;51.998;5.140;2023-08-31T11:57:25;17.33;118.99
65559;DHT22;52203;51.998;5.140;2023-08-31T11:59:51;17.35;118.99
65559;DHT22;52203;51.998;5.140;2023-08-31T12:02:19;17.50;118.99
65559;DHT22;52203;51.998;5.140;2023-08-31T12:04:45;17.59;118.99
65559;DHT22;52203;51.998;5.140;2023-08-31T12:07:12;17.68;118.99
65559;DHT22;52203;51.998;5.140;2023-08-31T12:09:41;17.73;118.99
65559;DHT22;52203;51.998;5.140;2023-08-31T12:12:07;17.74;118.99
65559;DHT22;52203;51.998;5.140;2023-08-31T12:14:33;17.69;118.99
65559;DHT22;52203;51.998;5.140;2023-08-31T12:17:07;17.74;118.99
65559;DHT22;52203;51.998;5.140;2023-08-31T12:19:36;17.70;118.99
65559;DHT22;52203;51.998;5.140;2023-08-31T12:22:01;17.74;118.99
65559;DHT22;52203;51.998;5.140;2023-08-31T12:24:27;17.89;118.99
65559;DHT22;52203;51.998;5.140;2023-08-31T15:58:20;14.09;118.99
65559;DHT22;52203;51.998;5.140;2023-08-31T16:00:46;13.94;118.99
65559;DHT22;52203;51.998;5.140;2023-08-31T16:03:12;13.82;118.99
65559;DHT22;52203;51.998;5.140;2023-08-31T16:05:38;13.80;118.99
65559;DHT22;52203;51.998;5.140;2023-08-31T16:08:04;13.79;118.99
65559;DHT22;52203;51.998;5.140;2023-08-31T16:10:30;13.76;118.99
65559;DHT22;52203;51.998;5.140;2023-08-31T16:12:56;13.75;118.99
65559;DHT22;52203;51.998;5.140;2023-08-31T16:15:25;13.69;118.99
65559;DHT22;52203;51.998;5.140;2023-08-31T16:17:52;13.66;118.99
65559;DHT22;52203;51.998;5.140;2023-08-31T16:20:18;13.67;118.99
65559;DHT22;52203;51.998;5.140;2023-08-31T16:22:45;13.62;118.99
65559;DHT22;52203;51.998;5.140;2023-08-31T16:25:11;13.47;118.99
65559;DHT22;52203;51.998;5.140;2023-08-31T16:27:38;13.43;118.99
65559;DHT22;52203;51.998;5.140;2023-08-31T16:30:04;13.38;118.99
65559;DHT22;52203;51.998;5.140;2023-08-31T16:32:30;13.32;118.99
65559;DHT22;52203;51.998;5.140;2023-08-31T16:34:55;13.22;118.99
65559;DHT22;52203;51.998;5.140;2023-08-31T16:37:21;13.15;118.99
65559;DHT22;52203;51.998;5.140;2023-08-31T16:39:50;13.14;118.99
65559;DHT22;52203;51.998;5.140;2023-08-31T16:42:17;13.03;118.99
65559;DHT22;52203;51.998;5.140;2023-08-31T16:44:43;12.95;118.99
65559;DHT22;52203;51.998;5.140;2023-08-31T16:47:08;12.89;118.99
65559;DHT22;52203;51.998;5.140;2023-08-31T16:49:36;12.87;118.99
65559;DHT22;52203;51.998;5.140;2023-08-31T16:52:02;12.69;118.99
65559;DHT22;52203;51.998;5.140;2023-08-31T16:54:29;12.59;118.99
65559;DHT22;52203;51.998;5.140;2023-08-31T16:56:54;12.52;118.99
65559;DHT22;52203;51.998;5.140;2023-08-31T16:59:21;12.47;118.99
65559;DHT22;52203;51.998;5.140;2023-08-31T17:01:47;12.40;118.99
65559;DHT22;52203;51.998;5.140;2023-08-31T17:04:12;12.37;118.99
65559;DHT22;52203;51.998;5.140;2023-08-31T17:06:38;12.28;118.99
65559;DHT22;52203;51.998;5.140;2023-08-31T17:09:04;12.16;118.99
65559;DHT22;52203;51.998;5.140;2023-08-31T17:11:32;12.08;118.99
65559;DHT22;52203;51.998;5.140;2023-08-31T17:14:00;12.00;118.99
65559;DHT22;52203;51.998;5.140;2023-08-31T17:16:26;11.93;118.99
65559;DHT22;52203;51.998;5.140;2023-08-31T17:18:51;11.84;118.99
65559;DHT22;52203;51.998;5.140;2023-08-31T17:21:17;11.83;118.99
65559;DHT22;52203;51.998;5.140;2023-08-31T17:23:44;11.76;118.99
65559;DHT22;52203;51.998;5.140;2023-08-31T17:26:20;11.72;118.99
65559;DHT22;52203;51.998;5.140;2023-08-31T17:28:46;11.66;118.99
65559;DHT22;52203;51.998;5.140;2023-08-31T17:31:11;11.60;118.99
65559;DHT22;52203;51.998;5.140;2023-08-31T17:33:37;11.52;118.99
65559;DHT22;52203;51.998;5.140;2023-08-31T17:36:02;11.46;118.99
65559;DHT22;52203;51.998;5.140;2023-08-31T17:38:28;11.40;118.99
65559;DHT22;52203;51.998;5.140;2023-08-31T17:40:53;11.30;118.99
65559;DHT22;52203;51.998;5.140;2023-08-31T17:43:19;11.26;118.99
65559;DHT22;52203;51.998;5.140;2023-08-31T17:45:46;10.98;118.99
65559;DHT22;52203;51.998;5.140;2023-08-31T17:48:12;10.85;118.99
65559;DHT22;52203;51.998;5.140;2023-08-31T17:50:38;10.78;118.99
65559;DHT22;52203;51.998;5.140;2023-08-31T17:53:03;10.73;118.99
65559;DHT22;52203;51.998;5.140;2023-08-31T17:55:31;10.69;118.99
65559;DHT22;52203;51.998;5.140;2023-08-31T17:57:56;10.58;118.99
65559;DHT22;52203;51.998;5.140;2023-08-31T18:00:22;10.41;118.99
65559;DHT22;52203;51.998;5.140;2023-08-31T18:02:48;10.43;118.99
65559;DHT22;52203;51.998;5.140;2023-08-31T18:05:19;10.40;118.99
65559;DHT22;52203;51.998;5.140;2023-08-31T18:07:49;10.33;118.99
65559;DHT22;52203;51.998;5.140;2023-08-31T18:10:15;10.23;118.99
65559;DHT22;52203;51.998;5.140;2023-08-31T18:12:44;10.16;118.99
65559;DHT22;52203;51.998;5.140;2023-08-31T18:15:11;10.06;118.99
65559;DHT22;52203;51.998;5.140;2023-08-31T18:17:36;9.92;118.99
65559;DHT22;52203;51.998;5.140;2023-08-31T18:20:02;9.70;118.99
65559;DHT22;52203;51.998;5.140;2023-08-31T18:22:28;9.57;118.99
65559;DHT22;52203;51.998;5.140;2023-08-31T18:24:54;9.50;118.99
65559;DHT22;52203;51.998;5.140;2023-08-31T18:27:20;9.39;118.99
65559;DHT22;52203;51.998;5.140;2023-08-31T18:29:45;9.33;118.99
65559;DHT22;52203;51.998;5.140;2023-08-31T18:32:11;9.23;118.99
65559;DHT22;52203;51.998;5.140;2023-08-31T18:34:38;9.15;118.99
65559;DHT22;52203;51.998;5.140;2023-08-31T18:37:04;9.11;118.99
65559;DHT22;52203;51.998;5.140;2023-08-31T18:39:29;9.05;118.99
65559;DHT22;52203;51.998;5.140;2023-08-31T18:58:25;8.59;118.99
65559;DHT22;52203;51.998;5.140;2023-08-31T19:00:50;8.58;118.99
65559;DHT22;52203;51.998;5.140;2023-08-31T19:03:17;8.47;118.99
65559;DHT22;52203;51.998;5.140;2023-08-31T19:05:42;8.39;118.99
65559;DHT22;52203;51.998;5.140;2023-08-31T19:08:08;8.34;118.99
65559;DHT22;52203;51.998;5.140;2023-08-31T19:10:34;8.30;118.99
65559;DHT22;52203;51.998;5.140;2023-08-31T19:12:59;8.23;118.99
65559;DHT22;52203;51.998;5.140;2023-08-31T19:15:33;8.14;118.99
65559;DHT22;52203;51.998;5.140;2023-08-31T19:17:59;8.16;118.99
65559;DHT22;52203;51.998;5.140;2023-08-31T19:20:25;8.16;118.99
65559;DHT22;52203;51.998;5.140;2023-08-31T19:22:50;8.17;118.99